createdAt,value
2019-03-01T00:00:41.738Z,0.00
2019-03-01T00:01:41.741Z,0.00
2019-03-01T00:02:41.734Z,0.00
2019-03-01T00:03:41.769Z,0.00
2019-03-01T00:04:41.736Z,0.00
2019-03-01T00:05:41.729Z,0.00
2019-03-01T00:06:41.729Z,0.00
2019-03-01T00:07:41.729Z,0.00
2019-03-01T00:08:41.754Z,0.00
2019-03-01T00:09:41.766Z,0.00
2019-03-01T00:10:41.729Z,0.00
2019-03-01T00:11:41.725Z,0.00
2019-03-01T00:12:41.727Z,0.00
2019-03-01T00:13:41.720Z,0.00
2019-03-01T00:14:41.752Z,0.00
2019-03-01T00:15:41.758Z,0.00
2019-03-01T00:16:41.713Z,0.00
2019-03-01T00:17:41.714Z,0.00
2019-03-01T00:18:41.713Z,0.00
2019-03-01T00:19:41.751Z,0.00
2019-03-01T00:20:41.710Z,0.00
2019-03-01T00:21:41.708Z,0.00
2019-03-01T00:22:41.710Z,0.00
2019-03-01T00:23:41.701Z,0.00
2019-03-01T00:24:41.802Z,0.00
2019-03-01T00:25:41.701Z,0.00
2019-03-01T00:26:41.698Z,0.00
2019-03-01T00:27:41.694Z,0.00
2019-03-01T00:28:41.705Z,0.00
2019-03-01T00:29:41.729Z,0.00
2019-03-01T00:30:41.690Z,0.00
2019-03-01T00:31:41.688Z,0.00
2019-03-01T00:32:41.696Z,0.00
2019-03-01T00:33:41.698Z,0.00
2019-03-01T00:34:41.726Z,0.00
2019-03-01T00:35:41.686Z,0.00
2019-03-01T00:36:41.677Z,0.00
2019-03-01T00:37:41.737Z,0.00
2019-03-01T00:38:41.685Z,0.00
2019-03-01T00:39:41.721Z,0.00
2019-03-01T00:40:41.681Z,0.00
2019-03-01T00:41:41.674Z,0.00
2019-03-01T00:42:41.678Z,0.00
2019-03-01T00:43:41.674Z,0.00
2019-03-01T00:44:41.692Z,0.00
2019-03-01T00:45:41.704Z,0.00
2019-03-01T00:46:41.665Z,0.00
2019-03-01T00:47:41.673Z,0.00
2019-03-01T00:48:41.663Z,0.00
2019-03-01T00:49:41.699Z,0.00
2019-03-01T00:50:41.662Z,0.00
2019-03-01T00:51:41.655Z,0.00
2019-03-01T00:52:41.664Z,0.00
2019-03-01T00:53:41.705Z,0.00
2019-03-01T00:54:41.656Z,0.00
2019-03-01T00:55:41.694Z,0.00
2019-03-01T00:56:41.647Z,0.00
2019-03-01T00:57:41.649Z,0.00
2019-03-01T00:58:41.659Z,0.00
2019-03-01T00:59:41.651Z,0.00
2019-03-01T01:00:41.683Z,0.00
2019-03-01T01:01:41.645Z,0.00
2019-03-01T01:02:41.641Z,0.00
2019-03-01T01:03:41.647Z,0.00
2019-03-01T01:04:41.636Z,0.00
2019-03-01T01:05:41.673Z,0.00
2019-03-01T01:06:41.630Z,0.00
2019-03-01T01:07:41.635Z,0.00
2019-03-01T01:08:41.628Z,0.00
2019-03-01T01:09:41.627Z,0.00
2019-03-01T01:10:41.626Z,0.00
2019-03-01T01:11:41.665Z,0.00
2019-03-01T01:12:41.620Z,0.00
2019-03-01T01:13:41.627Z,0.00
2019-03-01T01:14:42.096Z,0.00
2019-03-01T01:15:41.653Z,0.00
2019-03-01T01:16:41.613Z,0.00
2019-03-01T01:17:41.622Z,0.00
2019-03-01T01:18:41.610Z,0.00
2019-03-01T01:19:41.612Z,0.00
2019-03-01T01:20:41.648Z,0.00
2019-03-01T01:21:41.605Z,0.00
2019-03-01T01:22:41.601Z,0.00
2019-03-01T01:23:41.632Z,0.00
2019-03-01T01:24:41.643Z,0.00
2019-03-01T01:25:41.603Z,0.00
2019-03-01T01:26:41.635Z,0.00
2019-03-01T01:27:41.593Z,0.00
2019-03-01T01:28:41.595Z,0.00
2019-03-01T01:29:41.589Z,0.00
2019-03-01T01:30:41.640Z,0.00
2019-03-01T01:31:41.626Z,0.00
2019-03-01T01:32:41.591Z,0.00
2019-03-01T01:33:41.586Z,0.00
2019-03-01T01:34:41.589Z,0.00
2019-03-01T01:35:41.578Z,0.00
2019-03-01T01:36:41.614Z,0.00
2019-03-01T01:37:41.576Z,0.00
2019-03-01T01:38:41.578Z,0.00
2019-03-01T01:39:41.569Z,0.00
2019-03-01T01:40:41.567Z,0.00
2019-03-01T01:41:41.609Z,0.00
2019-03-01T01:42:41.564Z,0.00
2019-03-01T01:43:41.564Z,0.00
2019-03-01T01:44:41.561Z,0.00
2019-03-01T01:45:41.570Z,0.00
2019-03-01T01:46:41.599Z,0.00
2019-03-01T01:47:41.562Z,0.00
2019-03-01T01:48:41.555Z,0.00
2019-03-01T01:49:41.556Z,0.00
2019-03-01T01:50:41.559Z,0.00
2019-03-01T01:51:41.578Z,0.00
2019-03-01T01:52:41.585Z,0.00
2019-03-01T01:53:41.553Z,0.00
2019-03-01T01:54:41.544Z,0.00
2019-03-01T01:55:41.540Z,0.00
2019-03-01T01:56:41.571Z,0.00
2019-03-01T01:57:41.544Z,0.00
2019-03-01T01:58:41.534Z,0.00
2019-03-01T01:59:41.572Z,0.00
2019-03-01T02:00:42.063Z,0.00
2019-03-01T02:01:41.559Z,0.00
2019-03-01T02:02:41.540Z,0.00
2019-03-01T02:03:41.527Z,0.00
2019-03-01T02:04:41.525Z,0.00
2019-03-01T02:05:41.564Z,0.00
2019-03-01T02:06:41.551Z,0.00
2019-03-01T02:07:41.520Z,0.00
2019-03-01T02:08:41.529Z,0.00
2019-03-01T02:09:41.516Z,0.00
2019-03-01T02:10:41.511Z,0.00
2019-03-01T02:11:41.646Z,0.00
2019-03-01T02:12:41.505Z,0.00
2019-03-01T02:13:41.551Z,0.00
2019-03-01T02:14:41.519Z,0.00
2019-03-01T02:15:41.504Z,0.00
2019-03-01T02:16:41.502Z,0.00
2019-03-01T02:17:41.556Z,0.00
2019-03-01T02:18:41.500Z,0.00
2019-03-01T02:19:41.498Z,0.00
2019-03-01T02:20:41.499Z,0.00
2019-03-01T02:21:41.493Z,0.00
2019-03-01T02:22:41.525Z,0.00
2019-03-01T02:23:41.522Z,0.00
2019-03-01T02:24:41.484Z,0.00
2019-03-01T02:25:41.486Z,0.00
2019-03-01T02:26:41.482Z,0.00
2019-03-01T02:27:41.515Z,0.00
2019-03-01T02:28:41.478Z,0.00
2019-03-01T02:29:41.517Z,0.00
2019-03-01T02:30:41.478Z,0.00
2019-03-01T02:31:41.474Z,0.00
2019-03-01T02:32:41.506Z,0.00
2019-03-01T02:33:41.468Z,0.00
2019-03-01T02:34:42.848Z,0.00
2019-03-01T02:35:41.466Z,0.00
2019-03-01T02:36:41.466Z,0.00
2019-03-01T02:37:41.501Z,0.00
2019-03-01T02:38:41.466Z,0.00
2019-03-01T02:39:41.455Z,0.00
2019-03-01T02:40:41.588Z,0.00
2019-03-01T02:41:41.452Z,0.00
2019-03-01T02:42:41.485Z,0.00
2019-03-01T02:43:41.447Z,0.00
2019-03-01T02:44:41.471Z,0.00
2019-03-01T02:45:41.442Z,0.00
2019-03-01T02:46:41.468Z,0.00
2019-03-01T02:47:41.437Z,0.00
2019-03-01T02:48:41.490Z,0.00
2019-03-01T02:49:41.430Z,0.00
2019-03-01T02:50:41.437Z,0.00
2019-03-01T02:51:41.457Z,0.00
2019-03-01T02:52:41.433Z,0.00
2019-03-01T02:53:41.459Z,0.00
2019-03-01T02:54:41.421Z,0.00
2019-03-01T02:55:41.422Z,0.00
2019-03-01T02:56:41.422Z,0.00
2019-03-01T02:57:41.448Z,0.00
2019-03-01T02:58:41.443Z,0.00
2019-03-01T02:59:41.410Z,0.00
2019-03-01T03:00:41.412Z,0.00
2019-03-01T03:01:41.409Z,0.00
2019-03-01T03:02:41.403Z,0.00
2019-03-01T03:03:41.432Z,0.00
2019-03-01T03:04:41.399Z,0.00
2019-03-01T03:05:41.400Z,0.00
2019-03-01T03:06:41.398Z,0.00
2019-03-01T03:07:41.392Z,0.00
2019-03-01T03:08:41.425Z,0.00
2019-03-01T03:09:41.407Z,0.00
2019-03-01T03:10:41.384Z,0.00
2019-03-01T03:11:41.395Z,0.00
2019-03-01T03:12:41.378Z,0.00
2019-03-01T03:13:41.407Z,0.00
2019-03-01T03:14:41.376Z,0.00
2019-03-01T03:15:41.379Z,0.00
2019-03-01T03:16:41.371Z,0.00
2019-03-01T03:17:41.377Z,0.00
2019-03-01T03:18:41.397Z,0.00
2019-03-01T03:19:41.389Z,0.00
2019-03-01T03:20:41.466Z,0.00
2019-03-01T03:21:41.361Z,0.00
2019-03-01T03:22:41.358Z,0.00
2019-03-01T03:23:41.398Z,0.00
2019-03-01T03:24:41.351Z,0.00
2019-03-01T03:25:41.352Z,0.00
2019-03-01T03:26:41.348Z,0.00
2019-03-01T03:27:41.343Z,0.00
2019-03-01T03:28:41.372Z,0.00
2019-03-01T03:29:41.340Z,0.00
2019-03-01T03:30:41.335Z,0.00
2019-03-01T03:31:41.351Z,0.00
2019-03-01T03:32:41.350Z,0.00
2019-03-01T03:33:41.356Z,0.00
2019-03-01T03:34:41.331Z,0.00
2019-03-01T03:35:41.330Z,0.00
2019-03-01T03:36:41.330Z,0.00
2019-03-01T03:37:41.318Z,0.00
2019-03-01T03:38:41.348Z,0.00
2019-03-01T03:39:41.354Z,0.00
2019-03-01T03:40:41.310Z,0.00
2019-03-01T03:41:41.311Z,0.00
2019-03-01T03:42:41.308Z,0.00
2019-03-01T03:43:41.308Z,0.00
2019-03-01T03:44:41.334Z,0.00
2019-03-01T03:45:41.307Z,0.00
2019-03-01T03:46:41.311Z,0.00
2019-03-01T03:47:41.307Z,0.00
2019-03-01T03:48:41.321Z,0.00
2019-03-01T03:49:41.293Z,0.00
2019-03-01T03:50:41.287Z,0.00
2019-03-01T03:51:41.293Z,0.00
2019-03-01T03:52:41.290Z,0.00
2019-03-01T03:53:41.320Z,0.00
2019-03-01T03:54:41.439Z,0.00
2019-03-01T03:55:41.318Z,0.00
2019-03-01T03:56:41.278Z,0.00
2019-03-01T03:57:41.280Z,0.00
2019-03-01T03:58:41.307Z,0.00
2019-03-01T03:59:41.270Z,0.00
2019-03-01T04:00:41.447Z,0.00
2019-03-01T04:01:41.277Z,0.00
2019-03-01T04:02:41.295Z,0.00
2019-03-01T04:03:41.258Z,0.00
2019-03-01T04:04:41.286Z,0.00
2019-03-01T04:05:41.263Z,0.00
2019-03-01T04:06:41.253Z,0.00
2019-03-01T04:07:41.249Z,0.00
2019-03-01T04:08:41.250Z,0.00
2019-03-01T04:09:41.274Z,0.00
2019-03-01T04:10:41.250Z,0.00
2019-03-01T04:11:41.247Z,0.00
2019-03-01T04:12:41.238Z,0.00
2019-03-01T04:13:41.236Z,0.00
2019-03-01T04:14:41.260Z,0.00
2019-03-01T04:15:41.233Z,0.00
2019-03-01T04:16:41.231Z,0.00
2019-03-01T04:17:41.229Z,0.00
2019-03-01T04:18:41.225Z,0.00
2019-03-01T04:19:41.254Z,0.00
2019-03-01T04:20:41.224Z,0.00
2019-03-01T04:21:41.218Z,0.00
2019-03-01T04:22:41.219Z,0.00
2019-03-01T04:23:41.221Z,0.00
2019-03-01T04:24:41.248Z,0.00
2019-03-01T04:25:41.210Z,0.00
2019-03-01T04:26:41.655Z,0.00
2019-03-01T04:27:41.206Z,0.00
2019-03-01T04:28:41.202Z,0.00
2019-03-01T04:29:41.229Z,0.00
2019-03-01T04:30:41.243Z,0.00
2019-03-01T04:31:41.197Z,0.00
2019-03-01T04:32:41.291Z,0.00
2019-03-01T04:33:41.193Z,0.00
2019-03-01T04:34:41.238Z,0.00
2019-03-01T04:35:41.190Z,0.00
2019-03-01T04:36:41.186Z,0.00
2019-03-01T04:37:41.185Z,0.00
2019-03-01T04:38:41.182Z,0.00
2019-03-01T04:39:41.203Z,0.00
2019-03-01T04:40:41.178Z,0.00
2019-03-01T04:41:41.181Z,0.00
2019-03-01T04:42:41.175Z,0.00
2019-03-01T04:43:41.169Z,0.00
2019-03-01T04:44:41.197Z,0.00
2019-03-01T04:45:41.166Z,0.00
2019-03-01T04:46:41.166Z,0.00
2019-03-01T04:47:41.162Z,0.00
2019-03-01T04:48:41.162Z,0.00
2019-03-01T04:49:41.186Z,0.00
2019-03-01T04:50:41.186Z,0.00
2019-03-01T04:51:41.153Z,0.00
2019-03-01T04:52:41.194Z,0.00
2019-03-01T04:53:41.154Z,0.00
2019-03-01T04:54:41.185Z,0.00
2019-03-01T04:55:41.147Z,0.00
2019-03-01T04:56:41.143Z,0.00
2019-03-01T04:57:41.144Z,0.00
2019-03-01T04:58:41.144Z,0.00
2019-03-01T04:59:41.165Z,0.00
2019-03-01T05:00:41.143Z,0.00
2019-03-01T05:01:41.133Z,0.00
2019-03-01T05:02:41.137Z,0.00
2019-03-01T05:03:41.126Z,0.00
2019-03-01T05:04:41.164Z,0.00
2019-03-01T05:05:41.126Z,0.00
2019-03-01T05:06:41.123Z,0.00
2019-03-01T05:07:41.117Z,0.00
2019-03-01T05:08:41.120Z,0.00
2019-03-01T05:09:41.147Z,0.00
2019-03-01T05:10:41.152Z,0.00
2019-03-01T05:11:41.115Z,0.00
2019-03-01T05:12:41.111Z,0.00
2019-03-01T05:13:41.108Z,0.00
2019-03-01T05:14:41.139Z,0.00
2019-03-01T05:15:41.104Z,0.00
2019-03-01T05:16:41.136Z,0.00
2019-03-01T05:17:41.096Z,0.00
2019-03-01T05:18:41.102Z,0.00
2019-03-01T05:19:41.101Z,0.00
2019-03-01T05:20:41.097Z,0.00
2019-03-01T05:21:41.118Z,0.00
2019-03-01T05:22:41.100Z,0.00
2019-03-01T05:23:41.094Z,0.00
2019-03-01T05:24:41.089Z,0.00
2019-03-01T05:25:41.110Z,0.00
2019-03-01T05:26:41.081Z,0.00
2019-03-01T05:27:41.111Z,0.00
2019-03-01T05:28:41.081Z,0.00
2019-03-01T05:29:41.081Z,0.00
2019-03-01T05:30:41.098Z,0.00
2019-03-01T05:31:41.078Z,0.00
2019-03-01T05:32:41.120Z,0.00
2019-03-01T05:33:41.067Z,0.00
2019-03-01T05:34:41.067Z,0.00
2019-03-01T05:35:41.092Z,0.00
2019-03-01T05:36:41.060Z,0.00
2019-03-01T05:37:41.060Z,0.00
2019-03-01T05:38:41.056Z,0.00
2019-03-01T05:39:41.063Z,0.00
2019-03-01T05:40:41.128Z,0.00
2019-03-01T05:41:41.052Z,0.00
2019-03-01T05:42:41.049Z,0.00
2019-03-01T05:43:41.044Z,0.00
2019-03-01T05:44:41.043Z,0.00
2019-03-01T05:45:41.066Z,0.00
2019-03-01T05:46:41.043Z,0.00
2019-03-01T05:47:41.040Z,0.00
2019-03-01T05:48:41.039Z,0.00
2019-03-01T05:49:41.032Z,0.00
2019-03-01T05:50:41.066Z,0.00
2019-03-01T05:51:41.055Z,0.00
2019-03-01T05:52:41.026Z,0.00
2019-03-01T05:53:41.022Z,0.00
2019-03-01T05:54:41.031Z,0.00
2019-03-01T05:55:41.057Z,0.00
2019-03-01T05:56:41.022Z,0.00
2019-03-01T05:57:41.016Z,0.00
2019-03-01T05:58:41.012Z,0.00
2019-03-01T05:59:41.015Z,0.00
2019-03-01T06:00:41.037Z,0.00
2019-03-01T06:01:41.039Z,0.00
2019-03-01T06:02:41.006Z,0.00
2019-03-01T06:03:41.003Z,0.00
2019-03-01T06:04:41.002Z,0.00
2019-03-01T06:05:41.025Z,0.00
2019-03-01T06:06:40.998Z,0.00
2019-03-01T06:07:40.999Z,5.63
2019-03-01T06:08:40.993Z,5.63
2019-03-01T06:09:40.994Z,5.63
2019-03-01T06:10:41.015Z,5.63
2019-03-01T06:11:40.991Z,5.63
2019-03-01T06:12:40.986Z,5.63
2019-03-01T06:13:40.987Z,5.63
2019-03-01T06:14:40.981Z,5.63
2019-03-01T06:15:40.985Z,5.63
2019-03-01T06:16:41.004Z,5.63
2019-03-01T06:17:40.970Z,5.63
2019-03-01T06:18:40.973Z,5.63
2019-03-01T06:19:40.966Z,5.63
2019-03-01T06:20:40.976Z,11.25
2019-03-01T06:21:40.994Z,11.25
2019-03-01T06:22:40.961Z,16.88
2019-03-01T06:23:40.957Z,22.50
2019-03-01T06:24:40.954Z,28.13
2019-03-01T06:25:40.955Z,33.75
2019-03-01T06:26:40.976Z,50.63
2019-03-01T06:27:40.978Z,73.13
2019-03-01T06:28:40.943Z,90.00
2019-03-01T06:29:40.941Z,95.63
2019-03-01T06:30:40.942Z,112.50
2019-03-01T06:31:40.966Z,123.75
2019-03-01T06:32:42.279Z,140.63
2019-03-01T06:33:40.934Z,146.25
2019-03-01T06:34:40.936Z,151.88
2019-03-01T06:35:40.932Z,146.25
2019-03-01T06:36:40.962Z,140.63
2019-03-01T06:37:40.925Z,135.00
2019-03-01T06:38:40.922Z,129.38
2019-03-01T06:39:40.949Z,129.38
2019-03-01T06:40:40.916Z,123.75
2019-03-01T06:41:40.947Z,112.50
2019-03-01T06:42:40.914Z,101.25
2019-03-01T06:43:40.911Z,95.63
2019-03-01T06:44:40.916Z,90.00
2019-03-01T06:45:40.939Z,78.75
2019-03-01T06:46:40.930Z,73.13
2019-03-01T06:47:40.898Z,67.50
2019-03-01T06:48:40.899Z,61.88
2019-03-01T06:49:40.902Z,56.25
2019-03-01T06:50:40.894Z,50.63
2019-03-01T06:51:40.929Z,45.00
2019-03-01T06:52:40.894Z,50.63
2019-03-01T06:53:40.890Z,50.63
2019-03-01T06:54:40.887Z,56.25
2019-03-01T06:55:40.887Z,67.50
2019-03-01T06:56:40.918Z,73.13
2019-03-01T06:57:40.879Z,84.38
2019-03-01T06:58:40.876Z,101.25
2019-03-01T06:59:40.882Z,112.50
2019-03-01T07:00:49.624Z,118.13
2019-03-01T07:01:40.872Z,129.38
2019-03-01T07:02:40.900Z,140.63
2019-03-01T07:03:40.862Z,146.25
2019-03-01T07:04:40.864Z,135.00
2019-03-01T07:05:40.858Z,112.50
2019-03-01T07:06:40.859Z,106.88
2019-03-01T07:07:40.885Z,101.25
2019-03-01T07:08:40.850Z,95.63
2019-03-01T07:09:42.485Z,95.63
2019-03-01T07:10:40.848Z,95.63
2019-03-01T07:11:40.851Z,101.25
2019-03-01T07:12:40.871Z,112.50
2019-03-01T07:13:40.848Z,112.50
2019-03-01T07:14:40.838Z,112.50
2019-03-01T07:15:40.833Z,112.50
2019-03-01T07:16:40.834Z,118.13
2019-03-01T07:17:40.865Z,118.13
2019-03-01T07:18:40.831Z,112.50
2019-03-01T07:19:40.837Z,112.50
2019-03-01T07:20:40.823Z,118.13
2019-03-01T07:21:40.823Z,123.75
2019-03-01T07:22:40.847Z,123.75
2019-03-01T07:23:40.825Z,118.13
2019-03-01T07:24:40.823Z,118.13
2019-03-01T07:25:42.419Z,112.50
2019-03-01T07:26:41.580Z,112.50
2019-03-01T07:27:40.835Z,112.50
2019-03-01T07:28:40.811Z,106.88
2019-03-01T07:29:40.820Z,101.25
2019-03-01T07:30:40.810Z,95.63
2019-03-01T07:31:40.803Z,101.25
2019-03-01T07:32:42.379Z,106.88
2019-03-01T07:33:40.799Z,112.50
2019-03-01T07:34:40.792Z,123.75
2019-03-01T07:35:40.789Z,135.00
2019-03-01T07:36:40.792Z,135.00
2019-03-01T07:37:40.818Z,140.63
2019-03-01T07:38:40.782Z,151.88
2019-03-01T07:39:40.781Z,163.13
2019-03-01T07:40:40.785Z,168.75
2019-03-01T07:41:40.776Z,174.38
2019-03-01T07:42:40.804Z,174.38
2019-03-01T07:43:40.811Z,180.00
2019-03-01T07:44:40.768Z,196.88
2019-03-01T07:45:40.764Z,225.00
2019-03-01T07:46:40.765Z,253.13
2019-03-01T07:47:40.801Z,264.38
2019-03-01T07:48:40.760Z,258.75
2019-03-01T07:49:40.756Z,258.75
2019-03-01T07:50:40.783Z,270.00
2019-03-01T07:51:40.754Z,286.88
2019-03-01T07:52:40.752Z,315.00
2019-03-01T07:53:42.064Z,360.00
2019-03-01T07:54:40.762Z,382.50
2019-03-01T07:55:40.742Z,376.88
2019-03-01T07:56:40.817Z,360.00
2019-03-01T07:57:40.740Z,376.88
2019-03-01T07:58:40.764Z,410.63
2019-03-01T07:59:40.734Z,433.13
2019-03-01T08:00:40.741Z,421.88
2019-03-01T08:01:40.732Z,405.00
2019-03-01T08:02:40.848Z,410.63
2019-03-01T08:03:40.753Z,410.63
2019-03-01T08:04:40.726Z,388.13
2019-03-01T08:05:40.725Z,343.13
2019-03-01T08:06:40.725Z,348.75
2019-03-01T08:07:40.745Z,416.25
2019-03-01T08:08:40.746Z,506.25
2019-03-01T08:09:41.275Z,551.25
2019-03-01T08:10:40.712Z,585.00
2019-03-01T08:11:40.710Z,630.00
2019-03-01T08:12:42.586Z,691.88
2019-03-01T08:13:40.744Z,714.38
2019-03-01T08:14:40.733Z,691.88
2019-03-01T08:15:44.528Z,686.25
2019-03-01T08:16:40.702Z,714.38
2019-03-01T08:17:40.705Z,781.88
2019-03-01T08:18:44.272Z,860.63
2019-03-01T08:19:40.697Z,1023.75
2019-03-01T08:20:40.699Z,1530.00
2019-03-01T08:21:42.713Z,1051.88
2019-03-01T08:22:47.849Z,1040.63
2019-03-01T08:23:40.721Z,900.00
2019-03-01T08:24:42.868Z,849.38
2019-03-01T08:25:40.689Z,855.00
2019-03-01T08:26:40.690Z,883.13
2019-03-01T08:27:42.072Z,916.88
2019-03-01T08:28:40.719Z,1006.88
2019-03-01T08:29:40.718Z,1147.50
2019-03-01T08:30:42.489Z,1237.50
2019-03-01T08:31:40.815Z,1518.75
2019-03-01T08:32:40.685Z,1141.88
2019-03-01T08:33:43.474Z,1057.50
2019-03-01T08:34:40.687Z,1035.00
2019-03-01T08:35:40.688Z,1046.25
2019-03-01T08:36:42.423Z,1023.75
2019-03-01T08:37:40.682Z,973.13
2019-03-01T08:38:40.708Z,939.38
2019-03-01T08:39:40.746Z,950.63
2019-03-01T08:40:40.682Z,967.50
2019-03-01T08:41:40.682Z,990.00
2019-03-01T08:42:40.681Z,1029.38
2019-03-01T08:43:40.723Z,1057.50
2019-03-01T08:44:40.685Z,1147.50
2019-03-01T08:45:40.683Z,1215.00
2019-03-01T08:46:42.134Z,916.88
2019-03-01T08:47:40.685Z,883.13
2019-03-01T08:48:40.683Z,911.25
2019-03-01T08:49:40.710Z,900.00
2019-03-01T08:50:40.682Z,877.50
2019-03-01T08:51:40.688Z,928.13
2019-03-01T08:52:41.119Z,1074.38
2019-03-01T08:53:40.683Z,1265.63
2019-03-01T08:54:40.711Z,1355.63
2019-03-01T08:55:40.711Z,1288.13
2019-03-01T08:56:40.686Z,1215.00
2019-03-01T08:57:44.211Z,1198.13
2019-03-01T08:58:41.346Z,1102.50
2019-03-01T08:59:40.717Z,1029.38
2019-03-01T09:00:40.850Z,939.38
2019-03-01T09:01:41.792Z,871.88
2019-03-01T09:02:40.690Z,883.13
2019-03-01T09:03:41.642Z,939.38
2019-03-01T09:04:50.491Z,990.00
2019-03-01T09:05:40.687Z,945.00
2019-03-01T09:06:41.791Z,905.63
2019-03-01T09:07:40.697Z,911.25
2019-03-01T09:08:42.918Z,911.25
2019-03-01T09:09:40.729Z,911.25
2019-03-01T09:10:40.712Z,883.13
2019-03-01T09:11:41.639Z,860.63
2019-03-01T09:12:40.687Z,849.38
2019-03-01T09:13:40.696Z,838.13
2019-03-01T09:14:40.937Z,815.63
2019-03-01T09:15:40.784Z,781.88
2019-03-01T09:16:41.117Z,725.63
2019-03-01T09:17:40.693Z,646.88
2019-03-01T09:18:40.688Z,568.13
2019-03-01T09:19:40.718Z,534.38
2019-03-01T09:20:40.835Z,545.63
2019-03-01T09:21:40.689Z,585.00
2019-03-01T09:22:40.688Z,641.25
2019-03-01T09:23:40.699Z,691.88
2019-03-01T09:24:40.717Z,781.88
2019-03-01T09:25:41.414Z,849.38
2019-03-01T09:26:40.687Z,866.25
2019-03-01T09:27:40.687Z,956.25
2019-03-01T09:28:40.703Z,1113.75
2019-03-01T09:29:41.884Z,1136.25
2019-03-01T09:30:43.479Z,995.63
2019-03-01T09:35:43.237Z,793.13
2019-03-01T09:36:21.514Z,793.13
2019-03-01T09:38:52.799Z,978.75
2019-03-01T09:39:53.737Z,1040.63
2019-03-01T09:40:52.758Z,1063.13
2019-03-01T09:42:02.678Z,1040.63
2019-03-01T09:42:52.764Z,1051.88
2019-03-01T09:43:52.800Z,1181.25
2019-03-01T09:44:52.776Z,1158.75
2019-03-01T09:45:52.764Z,916.88
2019-03-01T09:46:52.763Z,798.75
2019-03-01T09:47:52.776Z,832.50
2019-03-01T09:48:52.823Z,956.25
2019-03-01T09:49:52.769Z,1029.38
2019-03-01T09:50:52.785Z,1080.00
2019-03-01T09:51:53.393Z,1136.25
2019-03-01T09:52:55.670Z,973.13
2019-03-01T09:53:52.803Z,821.25
2019-03-01T09:54:52.777Z,742.50
2019-03-01T09:55:52.778Z,686.25
2019-03-01T09:56:52.772Z,585.00
2019-03-01T09:57:52.770Z,585.00
2019-03-01T09:58:52.803Z,675.00
2019-03-01T09:59:52.769Z,753.75
2019-03-01T10:00:56.273Z,787.50
2019-03-01T10:01:52.765Z,742.50
2019-03-01T10:02:52.780Z,641.25
2019-03-01T10:03:52.803Z,618.75
2019-03-01T10:04:52.775Z,731.25
2019-03-01T10:05:52.770Z,798.75
2019-03-01T10:06:52.768Z,838.13
2019-03-01T10:07:52.763Z,911.25
2019-03-01T10:08:52.801Z,1046.25
2019-03-01T10:09:52.765Z,1158.75
2019-03-01T10:10:52.764Z,1282.50
2019-03-01T10:11:52.901Z,1923.75
2019-03-01T10:12:52.771Z,1721.25
2019-03-01T10:13:52.799Z,1569.38
2019-03-01T10:14:52.764Z,1501.88
2019-03-01T10:15:52.772Z,1569.38
2019-03-01T10:16:52.768Z,1721.25
2019-03-01T10:17:52.810Z,1631.25
2019-03-01T10:18:52.803Z,1535.63
2019-03-01T10:19:52.770Z,1434.38
2019-03-01T10:20:52.770Z,1333.13
2019-03-01T10:21:52.774Z,1186.88
2019-03-01T10:22:52.773Z,1023.75
2019-03-01T10:23:52.812Z,928.13
2019-03-01T10:24:52.773Z,838.13
2019-03-01T10:25:52.774Z,781.88
2019-03-01T10:26:52.784Z,781.88
2019-03-01T10:27:52.777Z,798.75
2019-03-01T10:28:52.819Z,787.50
2019-03-01T10:29:52.784Z,720.00
2019-03-01T10:30:52.819Z,658.13
2019-03-01T10:31:52.786Z,669.38
2019-03-01T10:32:52.790Z,798.75
2019-03-01T10:33:52.802Z,916.88
2019-03-01T10:34:52.821Z,950.63
2019-03-01T10:35:52.786Z,888.75
2019-03-01T10:36:52.794Z,787.50
2019-03-01T10:37:53.759Z,725.63
2019-03-01T10:38:52.791Z,691.88
2019-03-01T10:39:55.569Z,646.88
2019-03-01T10:40:52.790Z,590.63
2019-03-01T10:41:52.795Z,556.88
2019-03-01T10:42:52.794Z,556.88
2019-03-01T10:43:52.803Z,568.13
2019-03-01T10:44:52.827Z,540.00
2019-03-01T10:45:52.807Z,500.63
2019-03-01T10:46:52.794Z,461.25
2019-03-01T10:47:52.793Z,438.75
2019-03-01T10:48:52.793Z,416.25
2019-03-01T10:49:52.834Z,382.50
2019-03-01T10:50:52.840Z,354.38
2019-03-01T10:51:52.793Z,337.50
2019-03-01T10:52:52.794Z,348.75
2019-03-01T10:53:52.794Z,399.38
2019-03-01T10:54:52.831Z,466.88
2019-03-01T10:55:52.793Z,528.75
2019-03-01T10:56:52.835Z,613.13
2019-03-01T10:57:52.798Z,680.63
2019-03-01T10:58:52.793Z,703.13
2019-03-01T10:59:52.794Z,686.25
2019-03-01T11:00:52.838Z,669.38
2019-03-01T11:01:52.800Z,635.63
2019-03-01T11:02:52.796Z,607.50
2019-03-01T11:03:52.795Z,607.50
2019-03-01T11:04:52.796Z,624.38
2019-03-01T11:05:53.090Z,613.13
2019-03-01T11:06:52.795Z,590.63
2019-03-01T11:07:52.798Z,540.00
2019-03-01T11:08:52.797Z,495.00
2019-03-01T11:09:52.796Z,472.50
2019-03-01T11:10:52.833Z,444.38
2019-03-01T11:11:52.813Z,399.38
2019-03-01T11:12:52.795Z,360.00
2019-03-01T11:13:52.792Z,326.25
2019-03-01T11:14:52.797Z,298.13
2019-03-01T11:15:52.831Z,241.88
2019-03-01T11:16:52.798Z,219.38
2019-03-01T11:17:52.807Z,225.00
2019-03-01T11:18:52.794Z,219.38
2019-03-01T11:19:53.393Z,213.75
2019-03-01T11:20:52.825Z,202.50
2019-03-01T11:21:52.795Z,213.75
2019-03-01T11:22:52.788Z,230.63
2019-03-01T11:23:52.787Z,298.13
2019-03-01T11:24:52.785Z,433.13
2019-03-01T11:25:52.837Z,618.75
2019-03-01T11:26:52.785Z,776.25
2019-03-01T11:27:52.786Z,894.38
2019-03-01T11:28:52.778Z,945.00
2019-03-01T11:29:52.781Z,990.00
2019-03-01T11:30:52.816Z,1006.88
2019-03-01T11:31:52.782Z,1018.13
2019-03-01T11:32:52.778Z,956.25
2019-03-01T11:33:52.777Z,933.75
2019-03-01T11:34:52.782Z,911.25
2019-03-01T11:35:52.809Z,838.13
2019-03-01T11:36:52.808Z,798.75
2019-03-01T11:37:52.775Z,776.25
2019-03-01T11:38:52.772Z,765.00
2019-03-01T11:39:52.772Z,770.63
2019-03-01T11:40:53.480Z,708.75
2019-03-01T11:41:52.807Z,675.00
2019-03-01T11:42:52.791Z,675.00
2019-03-01T11:43:52.773Z,663.75
2019-03-01T11:44:52.777Z,641.25
2019-03-01T11:45:52.789Z,579.38
2019-03-01T11:46:52.848Z,466.88
2019-03-01T11:47:52.775Z,433.13
2019-03-01T11:48:52.777Z,450.00
2019-03-01T11:49:52.775Z,455.63
2019-03-01T11:50:52.781Z,433.13
2019-03-01T11:51:52.809Z,455.63
2019-03-01T11:52:52.795Z,517.50
2019-03-01T11:53:52.769Z,511.88
2019-03-01T11:54:52.772Z,506.25
2019-03-01T11:55:52.782Z,562.50
2019-03-01T11:56:53.692Z,618.75
2019-03-01T11:57:52.774Z,669.38
2019-03-01T11:58:52.907Z,686.25
2019-03-01T11:59:52.773Z,697.50
2019-03-01T12:00:52.772Z,675.00
2019-03-01T12:01:52.810Z,635.63
2019-03-01T12:02:52.773Z,596.25
2019-03-01T12:03:52.777Z,652.50
2019-03-01T12:04:52.774Z,686.25
2019-03-01T12:05:52.778Z,658.13
2019-03-01T12:06:52.807Z,624.38
2019-03-01T12:07:52.774Z,658.13
2019-03-01T12:08:52.778Z,753.75
2019-03-01T12:09:52.772Z,753.75
2019-03-01T12:10:53.397Z,652.50
2019-03-01T12:11:52.810Z,590.63
2019-03-01T12:12:52.786Z,680.63
2019-03-01T12:13:52.770Z,826.88
2019-03-01T12:14:52.775Z,1023.75
2019-03-01T12:15:52.774Z,1428.75
2019-03-01T12:16:52.805Z,1766.25
2019-03-01T12:17:52.767Z,1828.13
2019-03-01T12:18:52.770Z,1828.13
2019-03-01T12:19:52.768Z,2193.75
2019-03-01T12:20:52.772Z,2131.88
2019-03-01T12:21:52.813Z,2396.25
2019-03-01T12:22:52.770Z,2953.13
2019-03-01T12:23:52.777Z,2626.88
2019-03-01T12:24:52.778Z,1839.38
2019-03-01T12:25:52.793Z,2053.13
2019-03-01T12:26:54.430Z,2131.88
2019-03-01T12:27:53.404Z,1653.75
2019-03-01T12:28:52.792Z,1473.75
2019-03-01T12:29:52.799Z,1749.38
2019-03-01T12:30:52.964Z,1383.75
2019-03-01T12:31:52.842Z,1873.13
2019-03-01T12:32:52.808Z,1164.38
2019-03-01T12:33:52.812Z,945.00
2019-03-01T12:34:52.815Z,826.88
2019-03-01T12:35:52.824Z,787.50
2019-03-01T12:36:52.862Z,736.88
2019-03-01T12:37:52.846Z,652.50
2019-03-01T12:38:52.835Z,579.38
2019-03-01T12:39:52.843Z,556.88
2019-03-01T12:40:52.841Z,545.63
2019-03-01T12:41:52.893Z,551.25
2019-03-01T12:42:52.885Z,573.75
2019-03-01T12:43:52.851Z,618.75
2019-03-01T12:44:52.875Z,686.25
2019-03-01T12:45:52.856Z,748.13
2019-03-01T12:46:52.862Z,787.50
2019-03-01T12:47:52.895Z,838.13
2019-03-01T12:48:52.866Z,911.25
2019-03-01T12:49:52.899Z,990.00
2019-03-01T12:50:52.872Z,1046.25
2019-03-01T12:51:52.869Z,1051.88
2019-03-01T12:52:52.910Z,1057.50
2019-03-01T12:53:52.872Z,1108.13
2019-03-01T12:54:52.874Z,1226.25
2019-03-01T12:55:52.872Z,1395.00